This is the latest recevied weather packets stored in our database for station/object G4KVI. If no packets are shown the sender has not sent any weather packets the latest 10 day(s).
| Time | Temp. | Humidity | Pressure | Rain* | Wind** | Luminosity | Snow |
|---|---|---|---|---|---|---|---|
| 1777647604 | 16.11° C | 73% | 1022.3 hPa | 0 mm | - | 340 W/m² | - |
| 1777647304 | 16.11° C | 72% | 1021.9 hPa | 0 mm | - | 292 W/m² | - |
| 1777647004 | 16.67° C | 71% | 1022.2 hPa | 0 mm | - | 269 W/m² | - |
| 1777646704 | 16.67° C | 72% | 1022.4 hPa | 0 mm | - | 275 W/m² | - |
| 1777646404 | 17.22° C | 71% | 1022.3 hPa | 0 mm | - | 196 W/m² | - |
| 1777646104 | 16.67° C | 74% | 1022.2 hPa | 0 mm | - | 322 W/m² | - |
| 1777645804 | 16.67° C | 74% | 1022.1 hPa | 0 mm | - | 335 W/m² | - |
| 1777645504 | 16.11° C | 75% | 1022.2 hPa | 0 mm | - | 421 W/m² | - |
| 1777645204 | 16.11° C | 74% | 1022 hPa | 0 mm | - | 439 W/m² | - |
| 1777644904 | 16.11° C | 75% | 1022.2 hPa | 0 mm | - | 249 W/m² | - |
| 1777644604 | 16.11° C | 75% | 1022.2 hPa | 0 mm | - | 445 W/m² | - |
| 1777644304 | 15.56° C | 76% | 1022.1 hPa | 0 mm | - | 319 W/m² | - |
| 1777644004 | 15.56° C | 77% | 1022 hPa | 0 mm | - | 347 W/m² | - |
| 1777643704 | 15.56° C | 76% | 1022.4 hPa | 0 mm | - | 228 W/m² | - |
| 1777643404 | 15.56° C | 79% | 1022.1 hPa | 0 mm | - | 207 W/m² | - |
| 1777643104 | 15.56° C | 79% | 1021.9 hPa | 0 mm | - | 307 W/m² | - |
| 1777642804 | 15° C | 81% | 1022 hPa | 0 mm | - | 183 W/m² | - |
| 1777642504 | 15° C | 81% | 1022.2 hPa | 0 mm | - | 183 W/m² | - |
| 1777641904 | 15° C | 81% | 1022.2 hPa | 0 mm | - | 168 W/m² | - |
| 1777641604 | 15.56° C | 79% | 1022.3 hPa | 0 mm | - | 121 W/m² | - |
| 1777641304 | 15.56° C | 80% | 1022.2 hPa | 0 mm | - | 127 W/m² | - |
| 1777641004 | 15.56° C | 79% | 1022.4 hPa | 0 mm | - | 219 W/m² | - |
| 1777640704 | 15.56° C | 80% | 1022.3 hPa | 0 mm | - | 469 W/m² | - |
| 1777640404 | 14.44° C | 82% | 1022.3 hPa | 0 mm | - | 583 W/m² | - |
| 1777640104 | 14.44° C | 82% | 1022.1 hPa | 0 mm | - | 295 W/m² | - |
* Rain latest hour (hover to see other rain measurements)
** Current wind speed in m/s (hover to see current wind gust speed)